KSMX/SMX METAR and TAF weather

Enter ICAO airport designator
Station Type Date Time Source
KSMX METAR 2021/09/27 06:51 UTC NOAA

KSMX 270651Z AUTO 00000KT 9SM OVC012 13/12 A3006 RMK AO2 SLP182 T01330117


Station Type Date Time Source
KSMX Decoded METAR 2021/09/27 06:51 UTC NOAA

SANTA MARIA PUBLIC AIRPORT, CA, United States (KSMX) 34-54N 120-28W 74M
Sep 27, 2021 - 02:51 AM EDT / 2021.09.27 0651 UTC
Wind: Calm:0
Visibility: 9 mile(s):0
Sky conditions: overcast
Temperature: 55.9 F (13.3 C)
Dew Point: 53.1 F (11.7 C)
Relative Humidity: 90%
Pressure (altimeter): 30.06 in. Hg (1017 hPa)
ob: KSMX 270651Z AUTO 00000KT 9SM OVC012 13/12 A3006 RMK AO2 SLP182 T01330117
cycle: 7

Station Type Date Time Source
KSMX TAF 2021/09/27 06:03 UTC NOAA

TAF KSMX 270600Z 2706/2806 VRB03KT P6SM BKN011
FM270700 VRB03KT 6SM BR OVC006
FM271200 VRB03KT 5SM BR OVC004
FM271400 VRB03KT 6SM BR OVC009
FM271700 31006KT P6SM BKN014
FM271900 31011KT P6SM SCT014
FM280200 31006KT P6SM BKN010

Example: see airport list